Time;durP1;ratioP1;P1;durP2;ratioP2;P2;SDS_P1;SDS_P2;PMS_P1;PMS_P2;Temp;Humidity;BMP_temperature;BMP_pressure;BME280_temperature;BME280_humidity;BME280_pressure;Samples;Min_cycle;Max_cycle;Signal;HPM_P1;HPM_P2
2022/11/29 00:01:25;;;;;;;5.18;4.10;;;;;;;3.43;100.00;62352.03;4998515;28;20456;-77
2022/11/29 00:03:53;;;;;;;4.43;3.70;;;;;;;3.40;100.00;62346.41;5006228;28;20426;-77
2022/11/29 00:06:21;;;;;;;3.30;3.10;;;;;;;3.47;100.00;62361.16;4995242;28;20227;-78
2022/11/29 00:08:49;;;;;;;3.00;2.88;;;;;;;3.39;100.00;62352.94;5004363;28;20231;-77
2022/11/29 00:14:01;;;;;;;2.35;2.25;;;;;;;3.27;100.00;62338.06;5003951;28;20215;-78
2022/11/29 00:16:28;;;;;;;2.17;2.08;;;;;;;3.22;100.00;62333.47;5005218;28;20412;-78
2022/11/29 00:18:55;;;;;;;1.77;1.67;;;;;;;3.12;100.00;62317.63;5005563;28;20240;-77
2022/11/29 00:21:22;;;;;;;1.83;1.73;;;;;;;2.90;100.00;62300.56;5004106;28;20524;-78
2022/11/29 00:23:49;;;;;;;1.83;1.73;;;;;;;2.95;100.00;62300.16;4997806;28;20200;-78
2022/11/29 00:26:16;;;;;;;2.42;2.22;;;;;;;2.85;100.00;62295.41;4985990;28;20239;-77
2022/11/29 00:28:43;;;;;;;2.25;2.15;;;;;;;2.98;100.00;62306.28;4987699;28;20254;-78
2022/11/29 00:31:16;;;;;;;2.45;2.35;;;;;;;3.09;100.00;62322.59;4986497;28;20266;-76
2022/11/29 00:33:43;;;;;;;2.42;2.22;;;;;;;3.18;100.00;62331.34;4987569;28;20267;-77
2022/11/29 00:36:10;;;;;;;2.22;2.13;;;;;;;3.19;100.00;62322.31;4988226;28;20222;-78
2022/11/29 00:38:38;;;;;;;2.17;1.98;;;;;;;3.30;100.00;62338.66;5005538;28;20197;-76
2022/11/29 00:41:05;;;;;;;2.55;2.40;;;;;;;3.24;100.00;62329.97;5004995;28;20597;-78
2022/11/29 00:43:32;;;;;;;5.80;2.58;;;;;;;3.31;100.00;62339.69;5002299;28;20242;-77
2022/11/29 00:46:00;;;;;;;2.40;2.20;;;;;;;3.41;100.00;62349.97;5006600;28;20257;-78
2022/11/29 00:48:28;;;;;;;2.70;2.50;;;;;;;3.52;100.00;62361.78;5005603;28;20199;-80
2022/11/29 00:50:55;;;;;;;2.63;2.42;;;;;;;3.58;100.00;62369.94;5001435;28;20216;-79
2022/11/29 00:53:22;;;;;;;2.78;2.58;;;;;;;3.45;100.00;62359.59;4986278;28;20271;-78
2022/11/29 00:55:50;;;;;;;3.05;2.78;;;;;;;3.42;100.00;62354.00;5000275;28;20230;-78
2022/11/29 00:58:17;;;;;;;3.35;3.05;;;;;;;3.39;100.00;62348.41;5006452;28;20199;-78
2022/11/29 01:00:44;;;;;;;3.38;3.17;;;;;;;3.38;100.00;62349.91;4998669;28;20272;-78
2022/11/29 01:03:11;;;;;;;3.30;3.10;;;;;;;3.50;100.00;62361.72;4999504;28;20200;-77
2022/11/29 01:05:41;;;;;;;4.07;2.97;;;;;;;3.51;100.00;62360.25;4985761;28;20224;-78
2022/11/29 01:08:08;;;;;;;3.65;3.13;;;;;;;3.53;100.00;62357.78;4985743;28;20234;-79
2022/11/29 01:10:36;;;;;;;3.25;3.00;;;;;;;3.54;100.00;62363.31;4992421;28;20246;-79
2022/11/29 01:13:02;;;;;;;4.03;3.20;;;;;;;3.53;100.00;62362.81;5004318;28;20328;-78
2022/11/29 01:15:30;;;;;;;3.17;2.97;;;;;;;3.39;100.00;62345.91;5005155;28;20246;-77
2022/11/29 01:17:57;;;;;;;4.32;3.67;;;;;;;3.46;100.00;62355.63;5004882;28;20223;-78
2022/11/29 01:20:24;;;;;;;3.92;3.60;;;;;;;3.44;100.00;62353.56;5004582;28;20258;-78
2022/11/29 01:22:52;;;;;;;5.38;4.20;;;;;;;3.50;100.00;62359.22;5004886;28;20419;-78
2022/11/29 01:25:19;;;;;;;4.82;4.32;;;;;;;3.55;100.00;62369.88;5005309;28;20441;-78
2022/11/29 01:27:47;;;;;;;5.57;5.03;;;;;;;3.31;100.00;62342.19;5005367;28;20211;-78
2022/11/29 01:30:14;;;;;;;7.18;5.57;;;;;;;3.29;100.00;62337.63;5004406;28;20401;-78
2022/11/29 01:32:41;;;;;;;7.20;5.70;;;;;;;3.26;100.00;62337.56;5005192;28;20200;-78
2022/11/29 01:35:09;;;;;;;7.60;6.22;;;;;;;3.21;100.00;62327.38;5005223;28;20199;-76
2022/11/29 01:37:36;;;;;;;7.85;5.78;;;;;;;3.30;100.00;62333.59;4991967;28;20200;-78
2022/11/29 01:40:06;;;;;;;10.15;5.47;;;;;;;3.39;100.00;62350.41;4988620;28;20238;-78
2022/11/29 01:42:33;;;;;;;7.10;6.20;;;;;;;3.40;100.00;62349.44;4990772;28;20200;-79
2022/11/29 01:45:05;;;;;;;5.82;5.22;;;;;;;3.21;100.00;62329.41;4992650;28;20205;-79
2022/11/29 01:47:32;;;;;;;5.47;4.72;;;;;;;3.13;100.00;62326.72;4988945;28;20195;-77
2022/11/29 01:50:00;;;;;;;6.13;5.20;;;;;;;3.26;100.00;62332.53;4998123;28;20269;-78
2022/11/29 01:52:30;;;;;;;6.38;5.75;;;;;;;3.34;100.00;62340.25;5008779;28;20484;-78
2022/11/29 01:55:00;;;;;;;8.05;5.82;;;;;;;3.42;100.00;62348.97;5006592;28;20203;-78
2022/11/29 01:57:30;;;;;;;5.85;5.22;;;;;;;3.47;100.00;62359.16;5008580;28;20202;-77
2022/11/29 02:00:02;;;;;;;8.02;5.85;;;;;;;3.39;100.00;62345.38;5007411;28;20214;-77
2022/11/29 02:02:34;;;;;;;6.50;5.57;;;;;;;3.22;100.00;62332.94;4989089;28;20200;-76
2022/11/29 02:05:02;;;;;;;6.57;5.88;;;;;;;3.31;100.00;62339.69;4990161;28;20211;-78
2022/11/29 02:07:29;;;;;;;7.82;6.00;;;;;;;3.21;100.00;62332.41;4989818;28;20195;-78
2022/11/29 02:09:56;;;;;;;10.32;5.95;;;;;;;3.32;100.00;62341.22;5007254;28;20448;-77
2022/11/29 02:12:35;;;;;;;7.18;5.50;;;;;;;3.33;100.00;62342.25;5003744;28;20222;-77
2022/11/29 02:15:14;;;;;;;5.78;5.22;;;;;;;3.40;100.00;62353.94;4996604;28;20268;-78
2022/11/29 02:17:55;;;;;;;6.63;5.65;;;;;;;3.48;100.00;62354.63;5007391;28;20191;-78
2022/11/29 02:20:57;;;;;;;6.63;5.80;;;;;;;3.28;100.00;62342.13;5007273;28;20269;-78
2022/11/29 02:23:46;;;;;;;5.43;4.65;;;;;;;3.25;100.00;62334.03;5005833;28;20202;-78
2022/11/29 02:26:29;;;;;;;6.57;5.05;;;;;;;3.35;100.00;62341.25;5008418;28;20415;-77
2022/11/29 02:29:29;;;;;;;6.10;5.50;;;;;;;3.47;100.00;62354.13;5008669;28;20524;-78
2022/11/29 02:32:43;;;;;;;4.82;4.43;;;;;;;3.40;100.00;62354.47;4991512;28;20557;-77
2022/11/29 02:35:23;;;;;;;5.28;4.78;;;;;;;3.26;100.00;62332.53;4928119;29;20214;-77
2022/11/29 02:38:13;;;;;;;4.88;4.47;;;;;;;3.37;100.00;62348.88;4929269;29;20190;-77
2022/11/29 02:41:04;;;;;;;7.80;5.03;;;;;;;3.38;100.00;62346.88;4983510;28;20235;-78
2022/11/29 02:43:53;;;;;;;4.93;4.53;;;;;;;3.35;100.00;62341.78;5007351;28;20204;-78
2022/11/29 02:46:51;;;;;;;5.80;3.92;;;;;;;3.27;100.00;62335.56;5010249;28;20219;-77
2022/11/29 02:49:35;;;;;;;5.78;3.65;;;;;;;3.31;100.00;62345.22;5002662;28;20222;-77
2022/11/29 02:52:08;;;;;;;5.15;3.97;;;;;;;3.33;100.00;62344.75;5006705;28;20215;-77
2022/11/29 02:54:45;;;;;;;8.20;4.15;;;;;;;3.18;100.00;62321.78;5006837;28;20203;-77
2022/11/29 02:57:21;;;;;;;4.50;3.65;;;;;;;3.22;100.00;62327.91;5007611;28;20219;-76
2022/11/29 02:59:55;;;;;;;3.63;3.30;;;;;;;3.34;100.00;62340.75;5003235;28;20225;-77
2022/11/29 03:02:29;;;;;;;6.72;4.07;;;;;;;3.49;100.00;62358.19;5007860;28;20496;-77
2022/11/29 03:05:09;;;;;;;5.05;3.90;;;;;;;3.51;100.00;62358.25;5006120;28;20270;-77
2022/11/29 03:07:46;;;;;;;5.47;4.55;;;;;;;3.45;100.00;62354.56;5003465;28;20207;-78
2022/11/29 03:10:29;;;;;;;4.57;3.88;;;;;;;3.44;100.00;62351.03;5006038;28;20255;-78
2022/11/29 03:12:57;;;;;;;4.43;4.00;;;;;;;3.54;100.00;62358.28;4994450;28;20216;-75
2022/11/29 03:15:29;;;;;;;6.90;4.97;;;;;;;3.63;100.00;62369.53;4987335;28;20412;-78
2022/11/29 03:18:21;;;;;;;4.90;4.40;;;;;;;3.71;100.00;62383.31;5002205;28;20231;-77
2022/11/29 03:20:58;;;;;;;4.18;3.80;;;;;;;3.75;100.00;62387.44;5005121;28;20587;-79
2022/11/29 03:23:35;;;;;;;5.22;4.03;;;;;;;3.76;100.00;62382.91;5006432;28;20194;-78
2022/11/29 03:26:07;;;;;;;6.78;3.88;;;;;;;3.80;100.00;62389.53;5006524;28;20227;-77
2022/11/29 03:28:39;;;;;;;4.78;3.92;;;;;;;3.66;100.00;62375.66;5008275;28;20227;-78
2022/11/29 03:31:12;;;;;;;3.65;3.35;;;;;;;3.61;100.00;62370.03;5005021;28;20254;-78
2022/11/29 03:33:49;;;;;;;4.60;3.70;;;;;;;3.54;100.00;62365.84;5006439;28;20191;-78
2022/11/29 03:36:25;;;;;;;4.13;3.40;;;;;;;3.43;100.00;62357.56;5006087;28;20229;-78
2022/11/29 03:38:59;;;;;;;4.30;3.78;;;;;;;3.38;100.00;62351.91;4998568;28;20196;-78
2022/11/29 03:41:32;;;;;;;5.63;3.78;;;;;;;3.35;100.00;62344.31;5001351;28;20293;-78
2022/11/29 03:44:09;;;;;;;4.85;3.90;;;;;;;3.33;100.00;62342.25;5006667;28;20199;-78
2022/11/29 03:46:42;;;;;;;6.38;4.22;;;;;;;3.26;100.00;62332.03;4996206;28;20273;-78
2022/11/29 03:49:17;;;;;;;5.93;4.22;;;;;;;3.33;100.00;62342.25;5006248;28;20187;-78
2022/11/29 03:51:56;;;;;;;3.83;3.53;;;;;;;3.31;100.00;62339.69;5006950;28;20219;-78
2022/11/29 03:54:28;;;;;;;9.98;3.28;;;;;;;3.43;100.00;62352.03;5005351;28;20206;-78
2022/11/29 03:56:56;;;;;;;3.75;3.30;;;;;;;3.27;100.00;62333.03;4997609;28;20293;-78
2022/11/29 03:59:32;;;;;;;3.40;3.10;;;;;;;3.26;100.00;62335.03;5003617;28;20291;-79
2022/11/29 04:02:37;;;;;;;2.53;2.42;;;;;;;3.23;100.00;62331.44;5005701;28;20222;-78
2022/11/29 04:05:34;;;;;;;2.47;2.28;;;;;;;3.08;100.00;62316.03;5001794;28;20196;-79
2022/11/29 04:08:20;;;;;;;2.00;1.90;;;;;;;3.03;100.00;62310.91;5005457;28;20453;-78
2022/11/29 04:11:23;;;;;;;2.05;1.95;;;;;;;3.06;100.00;62314.50;4997354;28;20235;-80
2022/11/29 04:14:23;;;;;;;2.22;1.52;;;;;;;3.14;100.00;62322.22;4989009;28;20625;-78
2022/11/29 04:17:20;;;;;;;3.10;1.67;;;;;;;3.04;100.00;62314.44;4972146;28;20290;-78
2022/11/29 04:20:05;;;;;;;3.88;1.88;;;;;;;2.96;100.00;62301.19;5005131;28;20269;-79
2022/11/29 04:22:53;;;;;;;2.40;2.20;;;;;;;2.93;100.00;62306.16;5005967;28;20187;-77
2022/11/29 04:25:54;;;;;;;3.22;2.03;;;;;;;3.01;100.00;62304.31;5000618;28;20219;-78
2022/11/29 04:29:01;;;;;;;3.53;1.92;;;;;;;2.99;100.00;62307.28;4965240;28;20204;-77
2022/11/29 04:31:38;;;;;;;2.35;2.20;;;;;;;2.92;100.00;62297.06;4978499;28;20540;-79
2022/11/29 04:34:47;;;;;;;2.67;2.38;;;;;;;2.91;100.00;62296.03;5006078;28;20206;-79
2022/11/29 04:38:03;;;;;;;7.05;2.50;;;;;;;3.06;100.00;62317.00;4998402;28;20414;-77
2022/11/29 04:40:51;;;;;;;3.55;3.25;;;;;;;3.07;100.00;62315.50;5001595;28;20219;-76
2022/11/29 04:43:48;;;;;;;3.47;3.17;;;;;;;3.04;100.00;62314.94;5007928;28;20242;-77
2022/11/29 04:46:48;;;;;;;3.05;2.75;;;;;;;3.02;100.00;62312.88;5008413;28;20223;-79
2022/11/29 04:49:29;;;;;;;2.90;2.28;;;;;;;3.04;100.00;62311.91;5004927;28;20204;-77
2022/11/29 04:52:14;;;;;;;2.42;2.22;;;;;;;3.09;100.00;62322.09;4992970;28;20272;-79
2022/11/29 04:54:48;;;;;;;2.40;2.22;;;;;;;3.11;100.00;62321.63;5001717;28;20227;-79
2022/11/29 04:57:28;;;;;;;2.70;2.50;;;;;;;3.14;100.00;62324.72;5004081;28;20379;-76
2022/11/29 05:00:06;;;;;;;2.85;2.65;;;;;;;3.11;100.00;62317.13;4994239;28;20358;-78
2022/11/29 05:02:41;;;;;;;2.75;2.55;;;;;;;3.03;100.00;62311.41;4994370;28;20573;-76
2022/11/29 05:05:21;;;;;;;2.80;2.60;;;;;;;3.18;100.00;62321.28;5005788;28;20199;-77
2022/11/29 05:07:57;;;;;;;3.10;2.90;;;;;;;3.20;100.00;62330.88;5003289;28;20195;-79
2022/11/29 05:10:38;;;;;;;2.42;2.30;;;;;;;3.25;100.00;62336.53;4998025;28;20238;-78
2022/11/29 05:13:11;;;;;;;5.95;2.92;;;;;;;3.16;100.00;62324.75;5010005;28;20242;-78
2022/11/29 05:16:04;;;;;;;2.55;2.35;;;;;;;3.28;100.00;62336.59;5000900;28;20235;-78
2022/11/29 05:19:03;;;;;;;1.80;1.73;;;;;;;3.27;100.00;62335.56;5006221;28;20203;-77
2022/11/29 05:21:42;;;;;;;2.63;2.35;;;;;;;3.27;100.00;62333.03;5009789;28;20258;-77
2022/11/29 05:24:24;;;;;;;4.03;2.55;;;;;;;3.42;100.00;62350.97;5010201;28;20196;-78
2022/11/29 05:26:59;;;;;;;3.28;2.97;;;;;;;3.35;100.00;62341.78;5007365;28;20219;-76
2022/11/29 05:29:34;;;;;;;3.53;3.22;;;;;;;3.26;100.00;62334.53;5007930;28;20209;-78
2022/11/29 05:32:19;;;;;;;4.93;3.63;;;;;;;3.36;100.00;62345.34;5005968;28;20242;-78
2022/11/29 05:35:03;;;;;;;5.22;4.15;;;;;;;3.28;100.00;62339.63;5005803;28;20516;-78
2022/11/29 05:37:41;;;;;;;4.95;4.28;;;;;;;3.38;100.00;62349.41;5008466;28;20207;-77
2022/11/29 05:40:40;;;;;;;4.88;4.40;;;;;;;3.31;100.00;62337.66;5009053;28;20214;-77
2022/11/29 05:43:29;;;;;;;6.97;4.57;;;;;;;3.45;100.00;62359.09;4993988;28;20200;-78
2022/11/29 05:46:04;;;;;;;4.47;4.10;;;;;;;3.54;100.00;62363.84;5003475;28;20233;-77
2022/11/29 05:48:43;;;;;;;6.82;4.80;;;;;;;3.55;100.00;62364.34;5031373;28;20198;-79
2022/11/29 05:51:21;;;;;;;6.43;5.63;;;;;;;3.32;100.00;62343.22;5005448;28;20543;-77
2022/11/29 05:53:59;;;;;;;6.57;5.85;;;;;;;3.33;100.00;62344.25;5006650;28;20206;-77
2022/11/29 05:56:36;;;;;;;8.13;4.93;;;;;;;3.48;100.00;62357.16;5007934;28;20223;-77
2022/11/29 05:59:08;;;;;;;6.22;4.95;;;;;;;3.41;100.00;62350.47;5008067;28;20245;-77
2022/11/29 06:01:46;;;;;;;6.22;5.22;;;;;;;3.40;100.00;62349.44;4990519;28;20405;-78
2022/11/29 06:04:20;;;;;;;6.40;5.28;;;;;;;3.54;100.00;62360.81;4988234;28;20259;-78
2022/11/29 06:06:55;;;;;;;6.38;5.40;;;;;;;3.62;100.00;62373.56;4989504;28;20293;-78
2022/11/29 06:09:29;;;;;;;7.47;5.72;;;;;;;3.66;100.00;62375.16;4997181;28;20207;-77
2022/11/29 06:12:04;;;;;;;7.63;5.50;;;;;;;3.74;100.00;62383.38;5007896;28;20294;-78
2022/11/29 06:14:58;;;;;;;6.30;5.55;;;;;;;3.75;100.00;62386.91;5009174;28;20202;-78
2022/11/29 06:17:41;;;;;;;12.75;5.95;;;;;;;3.53;100.00;62362.28;5007549;28;20395;-79
2022/11/29 06:20:35;;;;;;;12.93;7.63;;;;;;;3.56;100.00;62367.91;5007570;28;20261;-77
2022/11/29 06:23:22;;;;;;;15.02;8.57;;;;;;;3.77;100.00;62386.47;5007381;28;20214;-77
2022/11/29 06:26:03;;;;;;;13.95;7.93;;;;;;;3.92;100.00;62404.91;5008366;28;20441;-78
2022/11/29 06:28:44;;;;;;;18.70;9.45;;;;;;;4.04;100.00;62417.25;4990377;28;20206;-78
2022/11/29 06:31:19;;;;;;;16.30;8.35;;;;;;;3.89;100.00;62401.84;4989610;28;20231;-78
2022/11/29 06:33:56;;;;;;;12.20;6.68;;;;;;;4.00;100.00;62410.66;4989241;28;20260;-78
2022/11/29 06:36:29;;;;;;;9.55;6.45;;;;;;;4.08;100.00;62421.38;4988745;28;20219;-77
2022/11/29 06:38:58;;;;;;;10.20;6.53;;;;;;;4.20;100.00;62428.69;4988802;28;20252;-80
2022/11/29 06:41:27;;;;;;;6.18;5.40;;;;;;;4.11;100.00;62421.44;4988349;28;20216;-77
2022/11/29 06:43:54;;;;;;;5.18;4.78;;;;;;;3.94;100.00;62408.97;4988518;28;20565;-78
2022/11/29 06:46:35;;;;;;;5.60;5.07;;;;;;;3.69;100.00;62378.25;4989084;28;20250;-79
2022/11/29 06:49:09;;;;;;;5.80;5.20;;;;;;;3.64;100.00;62371.09;4989741;28;20195;-77
2022/11/29 06:51:47;;;;;;;7.15;5.78;;;;;;;3.91;100.00;62405.91;4988172;28;20239;-78
2022/11/29 06:54:32;;;;;;;8.00;5.65;;;;;;;3.81;100.00;62390.56;4992173;28;20200;-80
2022/11/29 06:57:08;;;;;;;5.45;4.85;;;;;;;4.04;100.00;62419.78;4991142;28;20220;-78
2022/11/29 06:59:48;;;;;;;4.43;4.05;;;;;;;4.12;100.00;62425.50;4990091;28;20199;-77
2022/11/29 07:02:28;;;;;;;5.63;4.95;;;;;;;4.36;100.00;62447.69;4991958;28;20247;-77
2022/11/29 07:05:07;;;;;;;6.43;5.72;;;;;;;4.49;100.00;62455.50;4991133;28;20210;-78
2022/11/29 07:07:34;;;;;;;5.53;4.63;;;;;;;4.35;100.00;62446.13;4991128;28;20195;-79
2022/11/29 07:10:05;;;;;;;5.75;5.00;;;;;;;4.37;100.00;62451.22;4987816;28;20196;-77
2022/11/29 07:12:32;;;;;;;5.45;4.93;;;;;;;4.62;100.00;62471.91;4989037;28;20401;-79
2022/11/29 07:15:00;;;;;;;6.78;4.60;;;;;;;4.80;100.00;62492.44;4996078;28;20392;-77
2022/11/29 07:17:35;;;;;;;6.15;4.68;;;;;;;4.81;100.00;62495.50;5006111;28;20285;-79
2022/11/29 07:20:10;;;;;;;3.58;3.28;;;;;;;4.71;100.00;62483.69;5008152;28;20245;-78
2022/11/29 07:22:51;;;;;;;3.40;2.80;;;;;;;4.65;100.00;62482.06;5012084;28;20195;-79
2022/11/29 07:25:30;;;;;;;2.90;2.60;;;;;;;4.84;100.00;62496.56;5014358;28;20226;-80
2022/11/29 07:28:06;;;;;;;2.83;2.63;;;;;;;4.86;100.00;62496.09;5008165;28;20183;-78
2022/11/29 07:30:42;;;;;;;4.18;2.65;;;;;;;4.94;100.00;62508.88;5008537;28;20223;-78
2022/11/29 07:33:19;;;;;;;4.85;3.92;;;;;;;4.94;100.00;62509.38;5001334;28;20413;-79
2022/11/29 07:35:56;;;;;;;7.80;4.90;;;;;;;4.69;100.00;62476.09;4988597;28;20227;-78
2022/11/29 07:38:33;;;;;;;6.68;3.17;;;;;;;4.76;100.00;62490.88;4987742;28;20199;-78
2022/11/29 07:41:10;;;;;;;5.55;4.20;;;;;;;4.74;100.00;62486.78;4988619;28;20467;-78
2022/11/29 07:43:47;;;;;;;7.55;4.95;;;;;;;4.78;100.00;62494.94;5002947;28;20210;-78
2022/11/29 07:46:14;;;;;;;4.35;3.83;;;;;;;4.80;100.00;62497.50;5007469;28;20250;-79
2022/11/29 07:48:41;;;;;;;4.22;3.83;;;;;;;4.79;100.00;62488.91;5007538;28;20236;-77
2022/11/29 07:51:09;;;;;;;4.07;3.67;;;;;;;4.97;100.00;62514.50;5003512;28;20269;-78
2022/11/29 07:53:41;;;;;;;6.03;3.72;;;;;;;4.89;100.00;62496.16;4987142;28;20432;-77
2022/11/29 07:56:13;;;;;;;4.63;4.15;;;;;;;5.06;100.00;62521.22;4987525;28;20243;-78
2022/11/29 07:58:40;;;;;;;4.88;4.47;;;;;;;4.92;100.00;62501.78;4987273;28;20216;-77
2022/11/29 08:01:09;;;;;;;4.50;4.07;;;;;;;4.65;100.00;62480.06;4994043;28;20219;-78
2022/11/29 08:03:36;;;;;;;7.43;4.32;;;;;;;4.90;100.00;62502.75;4992561;28;20195;-77
2022/11/29 08:06:03;;;;;;;5.18;4.30;;;;;;;4.98;100.00;62513.50;4987554;28;20219;-78
2022/11/29 08:08:30;;;;;;;5.63;4.18;;;;;;;4.59;100.00;62476.38;4990596;28;20212;-78
2022/11/29 08:10:57;;;;;;;5.53;3.55;;;;;;;4.45;100.00;62453.91;4987858;28;20231;-79
2022/11/29 08:13:26;;;;;;;3.38;3.17;;;;;;;4.59;100.00;62468.81;4987332;28;20274;-77
2022/11/29 08:15:53;;;;;;;6.00;2.15;;;;;;;4.60;100.00;62472.38;5002186;28;20480;-78
2022/11/29 08:18:20;;;;;;;3.35;2.33;;;;;;;4.68;100.00;62480.63;5002218;28;20208;-77
2022/11/29 08:20:47;;;;;;;3.40;3.08;;;;;;;4.68;100.00;62482.63;4988652;28;20544;-78
2022/11/29 08:23:16;;;;;;;2.60;2.42;;;;;;;4.75;100.00;62487.31;4989699;28;20196;-79
2022/11/29 08:25:44;;;;;;;2.00;1.90;;;;;;;4.72;100.00;62484.22;4987576;28;20287;-78
2022/11/29 08:28:12;;;;;;;2.28;2.15;;;;;;;4.77;100.00;62491.38;4993620;28;20199;-78
2022/11/29 08:30:40;;;;;;;3.78;2.00;;;;;;;4.72;100.00;62479.16;5005123;28;20281;-78
2022/11/29 08:33:07;;;;;;;6.65;4.97;;;;;;;4.76;100.00;62485.31;5006778;28;20199;-80
2022/11/29 08:35:34;;;;;;;2.72;2.53;;;;;;;4.69;100.00;62481.13;4988328;28;20220;-79
2022/11/29 08:38:02;;;;;;;2.95;2.53;;;;;;;4.92;100.00;62504.28;4987118;28;20200;-78
2022/11/29 08:40:29;;;;;;;3.15;2.83;;;;;;;5.01;100.00;62516.59;4988461;28;20226;-79
2022/11/29 08:42:57;;;;;;;9.93;4.70;;;;;;;5.00;100.00;62518.09;4987203;28;20234;-79
2022/11/29 08:45:24;;;;;;;6.57;4.63;;;;;;;5.05;100.00;62520.19;4988662;28;20532;-79
2022/11/29 08:47:52;;;;;;;3.80;3.15;;;;;;;5.24;100.00;62537.25;4991560;28;20227;-79
2022/11/29 08:50:20;;;;;;;3.13;2.83;;;;;;;5.30;100.00;62545.94;4991925;28;20602;-79
2022/11/29 08:55:35;;;;;;;2.83;2.63;;;;;;;5.18;100.00;62531.56;5010828;28;20249;-79
2022/11/29 08:58:04;;;;;;;3.05;2.85;;;;;;;4.99;100.00;62514.03;5010923;28;20210;-79
2022/11/29 09:00:32;;;;;;;3.00;2.80;;;;;;;4.91;100.00;62506.31;5008315;28;20227;-78
2022/11/29 09:05:43;;;;;;;3.38;3.03;;;;;;;5.26;100.00;62536.78;5010937;28;20218;-79
2022/11/29 09:08:10;;;;;;;2.50;2.30;;;;;;;5.16;100.00;62531.53;5010645;28;20200;-78
2022/11/29 09:10:38;;;;;;;3.80;3.38;;;;;;;5.26;100.00;62539.81;5008576;28;20409;-79
2022/11/29 09:13:05;;;;;;;3.38;3.08;;;;;;;5.31;100.00;62546.97;5009903;28;20274;-78
2022/11/29 09:15:32;;;;;;;4.00;2.50;;;;;;;5.49;100.00;62563.50;5011120;28;20231;-79
2022/11/29 09:18:00;;;;;;;2.40;2.20;;;;;;;5.61;100.00;62577.88;5010964;28;20215;-78
2022/11/29 09:20:27;;;;;;;2.40;2.30;;;;;;;5.79;100.00;62594.44;5005854;28;20418;-79
2022/11/29 09:22:55;;;;;;;3.72;3.30;;;;;;;5.83;100.00;62601.09;5009928;28;20255;-78
2022/11/29 09:25:22;;;;;;;4.43;4.10;;;;;;;5.68;100.00;62585.09;5010053;28;20226;-79
2022/11/29 09:27:49;;;;;;;4.60;3.90;;;;;;;5.61;100.00;62573.34;5007401;28;20212;-79
2022/11/29 09:30:16;;;;;;;8.90;5.45;;;;;;;5.28;100.00;62541.88;5009214;28;20223;-78
2022/11/29 09:32:44;;;;;;;5.90;4.05;;;;;;;4.98;100.00;62505.94;5011936;28;20223;-81
2022/11/29 09:35:13;;;;;;;5.55;3.80;;;;;;;5.22;100.00;62533.19;5011711;28;20238;-80
2022/11/29 09:37:42;;;;;;;3.30;3.00;;;;;;;5.13;100.00;62526.44;5009950;28;20207;-81
2022/11/29 09:40:20;;;;;;;3.28;3.08;;;;;;;5.18;100.00;62531.56;5011937;28;20223;-81
2022/11/29 09:42:57;;;;;;;5.22;3.55;;;;;;;5.35;100.00;62546.06;5011112;28;20210;-82
2022/11/29 09:45:31;;;;;;;4.20;3.55;;;;;;;5.21;100.00;62536.69;5011140;28;20449;-81
2022/11/29 09:48:20;;;;;;;3.85;3.30;;;;;;;5.10;100.00;62523.34;4993758;28;20218;-81
2022/11/29 09:50:54;;;;;;;2.92;2.72;;;;;;;5.39;100.00;62553.22;4992691;28;20228;-79
2022/11/29 09:53:42;;;;;;;3.05;2.78;;;;;;;5.58;100.00;62569.75;4998469;28;20496;-80
2022/11/29 09:56:18;;;;;;;4.18;3.88;;;;;;;5.66;100.00;62581.03;4991374;28;20220;-80
2022/11/29 09:58:49;;;;;;;3.63;3.33;;;;;;;5.75;100.00;62590.31;4989150;28;20280;-79
2022/11/29 10:01:20;;;;;;;4.10;3.30;;;;;;;5.82;100.00;62600.06;4996488;28;20226;-79
2022/11/29 10:03:51;;;;;;;4.00;3.70;;;;;;;5.86;100.00;62606.19;5010729;28;20199;-78
2022/11/29 10:06:25;;;;;;;4.13;3.50;;;;;;;5.99;100.00;62614.53;5010296;28;20237;-77
2022/11/29 10:08:59;;;;;;;3.58;3.28;;;;;;;5.87;100.00;62604.69;5009288;28;20210;-79
2022/11/29 10:11:33;;;;;;;6.28;4.10;;;;;;;5.79;100.00;62596.94;5008292;28;20234;-78
2022/11/29 10:14:06;;;;;;;4.43;4.05;;;;;;;5.96;100.00;62610.91;5002676;28;20188;-78
2022/11/29 10:16:43;;;;;;;3.22;3.00;;;;;;;6.02;100.00;62612.06;4989359;28;20220;-79
2022/11/29 10:19:17;;;;;;;2.85;2.67;;;;;;;5.92;100.00;62604.28;4992795;28;20196;-79
2022/11/29 10:21:56;;;;;;;8.68;7.38;;;;;;;6.01;100.00;62614.06;4990671;28;20220;-78
2022/11/29 10:24:25;;;;;;;16.45;13.00;;;;;;;5.88;100.00;62603.19;4990781;28;20341;-78
2022/11/29 10:26:52;;;;;;;18.30;12.38;;;;;;;5.88;100.00;62603.19;4990300;28;20243;-82
2022/11/29 10:29:19;;;;;;;13.30;10.02;;;;;;;5.84;100.00;62599.06;5007097;28;20206;-79
2022/11/29 10:31:53;;;;;;;13.90;10.00;;;;;;;5.79;100.00;62594.44;5009076;28;20242;-80
2022/11/29 10:34:23;;;;;;;6.40;5.45;;;;;;;6.01;100.00;62616.06;5010373;28;20191;-78
2022/11/29 10:36:57;;;;;;;7.32;5.07;;;;;;;6.26;100.00;62642.38;5009413;28;20219;-79
2022/11/29 10:39:35;;;;;;;12.43;7.90;;;;;;;6.45;100.00;62666.50;5009967;28;20192;-80
2022/11/29 10:42:05;;;;;;;17.95;11.18;;;;;;;6.07;100.00;62622.25;5009017;28;20242;-79
2022/11/29 10:44:33;;;;;;;12.75;6.57;;;;;;;5.92;100.00;62611.88;5009471;28;20512;-80
2022/11/29 10:47:04;;;;;;;8.20;6.80;;;;;;;5.84;100.00;62602.13;5011751;28;20402;-79
2022/11/29 10:49:35;;;;;;;20.08;11.27;;;;;;;5.64;100.00;62578.97;5009968;28;20445;-79
2022/11/29 10:52:05;;;;;;;21.90;12.25;;;;;;;5.68;100.00;62582.56;5009654;28;20255;-82
2022/11/29 10:54:40;;;;;;;19.23;11.55;;;;;;;5.80;100.00;62595.44;5003015;28;20199;-81
2022/11/29 10:57:14;;;;;;;8.20;7.07;;;;;;;5.65;100.00;62576.94;4990090;28;20411;-79
2022/11/29 10:59:42;;;;;;;8.85;5.75;;;;;;;5.88;100.00;62605.72;4989843;28;20202;-79
2022/11/29 11:02:18;;;;;;;4.95;4.47;;;;;;;5.82;100.00;62600.06;4989832;28;20219;-78
2022/11/29 11:04:48;;;;;;;7.43;5.63;;;;;;;6.08;100.00;62625.81;5010353;28;20187;-80
2022/11/29 11:07:26;;;;;;;5.55;5.05;;;;;;;6.20;100.00;62633.66;5009684;28;20211;-79
2022/11/29 11:09:56;;;;;;;5.25;4.45;;;;;;;6.16;100.00;62634.06;5009871;28;20199;-79
2022/11/29 11:12:28;;;;;;;7.07;5.40;;;;;;;5.93;100.00;62610.88;5009881;28;20229;-78
2022/11/29 11:15:15;;;;;;;8.43;5.70;;;;;;;6.06;100.00;62613.66;5009472;28;20515;-81
2022/11/29 11:17:55;;;;;;;9.40;5.53;;;;;;;6.03;100.00;62616.13;5010072;28;20199;-78
2022/11/29 11:20:24;;;;;;;6.15;5.53;;;;;;;6.09;100.00;62624.84;5009737;28;20231;-78
2022/11/29 11:23:00;;;;;;;5.95;4.97;;;;;;;6.29;100.00;62645.47;5011035;28;20476;-80
2022/11/29 11:25:29;;;;;;;5.95;5.10;;;;;;;6.31;100.00;62644.47;5010524;28;20218;-79
2022/11/29 11:28:00;;;;;;;5.60;5.10;;;;;;;6.48;100.00;62669.59;5009373;28;20254;-79
2022/11/29 11:30:29;;;;;;;8.05;5.00;;;;;;;6.39;100.00;62655.78;5011820;28;20408;-80
2022/11/29 11:33:18;;;;;;;5.32;4.93;;;;;;;6.14;100.00;62627.47;5010594;28;20254;-80
2022/11/29 11:35:45;;;;;;;7.53;5.97;;;;;;;6.25;100.00;62641.34;5010103;28;20230;-80
2022/11/29 11:38:17;;;;;;;8.77;6.60;;;;;;;5.85;100.00;62602.63;5008490;28;20203;-80
2022/11/29 11:40:45;;;;;;;8.75;6.72;;;;;;;5.95;100.00;62612.44;5010982;28;20223;-80
2022/11/29 11:43:20;;;;;;;9.80;6.65;;;;;;;5.91;100.00;62608.28;5010395;28;20207;-82
2022/11/29 11:45:57;;;;;;;10.25;6.22;;;;;;;5.80;100.00;62595.44;5010087;28;20231;-79
2022/11/29 11:48:27;;;;;;;11.57;6.00;;;;;;;5.69;100.00;62583.59;4990346;28;20194;-81
2022/11/29 11:50:57;;;;;;;8.82;5.38;;;;;;;5.64;100.00;62581.47;4990187;28;20223;-78
2022/11/29 11:53:34;;;;;;;7.82;5.47;;;;;;;5.81;100.00;62593.97;4991757;28;20270;-80
2022/11/29 11:56:04;;;;;;;6.18;5.68;;;;;;;5.88;100.00;62603.72;5000675;28;20297;-80
2022/11/29 11:58:34;;;;;;;9.52;7.20;;;;;;;5.81;100.00;62596.50;5010197;28;20195;-79
2022/11/29 12:01:15;;;;;;;9.98;7.00;;;;;;;5.84;100.00;62597.06;5009641;28;20215;-78
2022/11/29 12:03:50;;;;;;;9.07;6.68;;;;;;;5.89;100.00;62604.22;5010085;28;20229;-78
2022/11/29 12:06:31;;;;;;;10.82;7.57;;;;;;;5.68;100.00;62585.59;5010863;28;20540;-81
2022/11/29 12:09:05;;;;;;;9.38;6.05;;;;;;;5.55;100.00;62567.19;5012407;28;20238;-81
2022/11/29 12:11:44;;;;;;;8.32;6.90;;;;;;;5.70;100.00;62587.16;5010726;28;20219;-79
2022/11/29 12:14:26;;;;;;;6.20;5.43;;;;;;;5.65;100.00;62580.00;5013004;28;20199;-79
2022/11/29 12:17:03;;;;;;;5.97;4.93;;;;;;;5.73;100.00;62587.72;5010060;28;20222;-78